Hindley, United Kingdom
Current Conditions -  °F | °C
As of 3:20 AM on Tuesday 21 Oct 2014 (Local Time) from EGCC Reporting Station
Moderate Rain Moderate Rain  
Wind Chill: 54°   Ceiling: 2700
Heat Index: 54°   Visibility: 4mi
Dew Point: 54°   Wind: 17mph
Humidity: 100%   Direction: 190°S
Pressure: 29.47"   Gusts: NA
Location:  53.54°N, 2.57°W
Report Text: EGCC 210220Z 19015KT 150V220 7000 RA SCT021CB BKN027 12/12 Q0998 RERA NOSIG
Loading
Personal Weather Stations






























Interactive Weather Map
Tropical Storm Tracking
New forecast layout! Learn more

10-Day Weather Forecast

Advertisements
Track Severe Weather on mobile